Wetaskiwin, Canada
Current Conditions -  °F | °C
As of 2:00 AM on Thursday 23 Oct 2014 (Local Time) from CYEG Reporting Station
Broken Clouds Broken Clouds  
Wind Chill: 33°   Ceiling: 24000
Heat Index: 37°   Visibility: 15mi
Dew Point: 30°   Wind: 6mph
Humidity: 75%   Direction: 190°S
Pressure: 29.51"   Gusts: NA
Location:  52.97°N, 113.38°W
Report Text: CYEG 230800Z 19005KT 15SM SCT140 BKN240 03/M01 A2951 RMK AC4CI3 SLP007
Loading
Personal Weather Stations






























Interactive Weather Map
Tropical Storm Tracking
New forecast layout! Learn more

10-Day Weather Forecast

Advertisements
Track Severe Weather on mobile